createdAt,value
2023-04-15T00:02:26.391Z,97.34
2023-04-15T00:05:29.717Z,95.93
2023-04-15T00:08:31.741Z,97.29
2023-04-15T00:11:33.781Z,96.88
2023-04-15T00:14:36.985Z,97.43
2023-04-15T00:17:39.848Z,98.39
2023-04-15T00:20:41.653Z,98.93
2023-04-15T00:23:44.050Z,98.84
2023-04-15T00:26:45.770Z,99.10
2023-04-15T00:29:48.697Z,99.10
2023-04-15T00:32:50.400Z,97.94
2023-04-15T00:35:56.657Z,98.43
2023-04-15T00:38:59.060Z,98.54
2023-04-15T00:42:01.053Z,98.59
2023-04-15T00:45:05.535Z,99.31
2023-04-15T00:48:07.381Z,99.58
2023-04-15T00:51:09.731Z,99.35
2023-04-15T00:54:14.665Z,100.00
2023-04-15T00:57:16.882Z,100.00
2023-04-15T01:03:41.527Z,99.40
2023-04-15T01:06:43.450Z,100.00
2023-04-15T01:09:45.769Z,99.65
2023-04-15T01:12:47.674Z,98.38
2023-04-15T01:15:49.319Z,100.00
2023-04-15T01:18:52.791Z,100.00
2023-04-15T01:21:55.137Z,100.00
2023-04-15T01:25:02.106Z,100.00
2023-04-15T01:28:06.423Z,100.00
2023-04-15T01:31:08.839Z,100.00
2023-04-15T01:34:12.532Z,99.89
2023-04-15T01:37:14.251Z,100.00
2023-04-15T01:40:16.641Z,100.00
2023-04-15T01:43:19.705Z,100.00
2023-04-15T01:46:21.647Z,100.00
2023-04-15T01:49:23.272Z,100.00
2023-04-15T01:52:25.340Z,100.00
2023-04-15T01:55:27.125Z,100.00
2023-04-15T01:58:30.400Z,100.00
2023-04-15T02:01:31.984Z,100.00
2023-04-15T02:04:34.699Z,100.00
2023-04-15T02:07:36.814Z,100.00
2023-04-15T02:10:38.785Z,100.00
2023-04-15T02:13:42.437Z,100.00
2023-04-15T02:16:44.133Z,100.00
2023-04-15T02:19:45.810Z,100.00
2023-04-15T02:22:48.376Z,100.00
2023-04-15T02:25:53.801Z,100.00
2023-04-15T02:28:57.578Z,100.00
2023-04-15T02:38:47.487Z,100.00
2023-04-15T02:41:53.660Z,100.00
2023-04-15T02:44:58.294Z,100.00
2023-04-15T02:48:06.692Z,100.00
2023-04-15T02:51:12.492Z,100.00
2023-04-15T02:54:14.834Z,100.00
2023-04-15T02:57:19.578Z,100.00
2023-04-15T03:00:22.614Z,100.00
2023-04-15T03:03:24.658Z,100.00
2023-04-15T03:06:26.401Z,100.00
2023-04-15T03:09:28.156Z,100.00
2023-04-15T03:12:30.386Z,100.00
2023-04-15T03:15:34.508Z,100.00
2023-04-15T03:18:36.344Z,100.00
2023-04-15T03:21:38.229Z,100.00
2023-04-15T03:24:40.094Z,100.00
2023-04-15T03:27:41.993Z,100.00
2023-04-15T03:30:45.251Z,100.00
2023-04-15T03:33:46.907Z,100.00
2023-04-15T03:36:48.490Z,100.00
2023-04-15T03:39:49.988Z,100.00
2023-04-15T03:42:51.509Z,100.00
2023-04-15T03:45:54.390Z,100.00
2023-04-15T03:48:56.121Z,100.00
2023-04-15T03:51:58.038Z,100.00
2023-04-15T03:54:59.678Z,100.00
2023-04-15T03:58:01.664Z,100.00
2023-04-15T04:01:04.714Z,100.00
2023-04-15T04:04:07.155Z,100.00
2023-04-15T04:07:08.900Z,100.00
2023-04-15T04:10:10.839Z,100.00
2023-04-15T04:13:12.527Z,100.00
2023-04-15T04:16:15.920Z,100.00
2023-04-15T04:19:20.004Z,100.00
2023-04-15T04:22:22.802Z,100.00
2023-04-15T04:25:24.724Z,100.00
2023-04-15T04:28:26.547Z,100.00
2023-04-15T04:31:29.812Z,100.00
2023-04-15T04:34:33.538Z,100.00
2023-04-15T04:37:35.583Z,100.00
2023-04-15T04:40:37.216Z,100.00
2023-04-15T04:43:38.914Z,100.00
2023-04-15T04:46:41.924Z,100.00
2023-04-15T04:49:46.674Z,100.00
2023-04-15T04:52:48.368Z,100.00
2023-04-15T04:55:49.976Z,100.00
2023-04-15T04:58:52.067Z,100.00
2023-04-15T05:01:55.120Z,100.00
2023-04-15T05:04:56.867Z,100.00
2023-04-15T05:07:58.805Z,100.00
2023-04-15T05:11:00.781Z,100.00
2023-04-15T05:14:02.581Z,100.00
2023-04-15T05:17:05.634Z,100.00
2023-04-15T05:20:08.370Z,100.00
2023-04-15T05:23:10.011Z,100.00
2023-04-15T05:26:11.963Z,100.00
2023-04-15T05:29:13.686Z,100.00
2023-04-15T05:32:17.455Z,100.00
2023-04-15T05:35:19.237Z,100.00
2023-04-15T05:38:20.742Z,100.00
2023-04-15T05:41:22.380Z,100.00
2023-04-15T05:44:24.107Z,100.00
2023-04-15T05:47:27.482Z,100.00
2023-04-15T05:50:29.287Z,100.00
2023-04-15T05:53:30.861Z,100.00
2023-04-15T05:56:32.542Z,100.00
2023-04-15T05:59:34.409Z,100.00
2023-04-15T06:02:37.924Z,100.00
2023-04-15T06:05:40.712Z,100.00
2023-04-15T06:08:42.806Z,100.00
2023-04-15T06:11:44.417Z,100.00
2023-04-15T06:14:46.120Z,100.00
2023-04-15T06:17:49.430Z,100.00
2023-04-15T06:20:51.736Z,100.00
2023-04-15T06:23:53.624Z,100.00
2023-04-15T06:26:55.310Z,100.00
2023-04-15T06:29:56.936Z,100.00
2023-04-15T06:32:59.980Z,100.00
2023-04-15T06:36:02.457Z,100.00
2023-04-15T06:39:04.342Z,100.00
2023-04-15T06:42:06.795Z,100.00
2023-04-15T06:45:09.547Z,100.00
2023-04-15T06:48:12.836Z,100.00
2023-04-15T06:51:14.422Z,100.00
2023-04-15T06:54:15.965Z,100.00
2023-04-15T06:57:17.484Z,100.00
2023-04-15T07:00:19.271Z,100.00
2023-04-15T07:03:22.503Z,100.00
2023-04-15T07:13:46.951Z,100.00
2023-04-15T07:16:48.618Z,100.00
2023-04-15T07:19:51.574Z,100.00
2023-04-15T07:22:53.270Z,100.00
2023-04-15T07:25:54.901Z,100.00
2023-04-15T07:28:56.777Z,100.00
2023-04-15T07:31:58.446Z,100.00
2023-04-15T07:35:02.231Z,100.00
2023-04-15T07:38:03.779Z,100.00
2023-04-15T07:41:05.330Z,100.00
2023-04-15T07:47:27.660Z,100.00
2023-04-15T07:50:30.702Z,100.00
2023-04-15T07:53:33.497Z,100.00
2023-04-15T07:56:34.964Z,100.00
2023-04-15T07:59:36.966Z,100.00
2023-04-15T08:02:40.335Z,100.00
2023-04-15T08:05:43.611Z,100.00
2023-04-15T08:08:45.378Z,100.00
2023-04-15T08:11:48.875Z,100.00
2023-04-15T08:14:50.751Z,100.00
2023-04-15T08:17:52.446Z,100.00
2023-04-15T08:20:55.408Z,100.00
2023-04-15T08:23:57.182Z,100.00
2023-04-15T08:27:00.363Z,100.00
2023-04-15T08:30:04.588Z,100.00
2023-04-15T08:33:06.651Z,100.00
2023-04-15T08:36:10.490Z,100.00
2023-04-15T08:39:12.047Z,100.00
2023-04-15T08:42:19.539Z,100.00
2023-04-15T08:45:22.114Z,100.00
2023-04-15T08:48:24.796Z,100.00
2023-04-15T08:51:28.719Z,100.00
2023-04-15T08:54:30.506Z,100.00
2023-04-15T08:57:33.521Z,100.00
2023-04-15T09:00:36.134Z,100.00
2023-04-15T09:03:38.088Z,100.00
2023-04-15T09:06:44.413Z,100.00
2023-04-15T09:09:46.269Z,100.00
2023-04-15T09:12:47.864Z,100.00
2023-04-15T09:15:49.672Z,100.00
2023-04-15T09:18:52.537Z,100.00
2023-04-15T09:21:59.697Z,100.00
2023-04-15T09:25:01.706Z,100.00
2023-04-15T09:28:04.682Z,100.00
2023-04-15T09:31:06.489Z,100.00
2023-04-15T09:34:08.628Z,100.00
2023-04-15T09:37:28.573Z,100.00
2023-04-15T09:40:34.681Z,100.00
2023-04-15T09:43:40.146Z,100.00
2023-04-15T09:46:42.672Z,100.00
2023-04-15T09:49:56.649Z,100.00
2023-04-15T09:53:03.397Z,100.00
2023-04-15T09:56:08.055Z,100.00
2023-04-15T09:59:12.032Z,100.00
2023-04-15T10:02:14.176Z,100.00
2023-04-15T10:05:17.886Z,100.00
2023-04-15T10:08:21.968Z,100.00
2023-04-15T10:11:25.561Z,100.00
2023-04-15T10:14:33.940Z,100.00
2023-04-15T10:17:43.686Z,100.00
2023-04-15T10:21:09.436Z,100.00
2023-04-15T10:24:13.298Z,100.00
2023-04-15T10:27:15.370Z,100.00
2023-04-15T10:30:17.638Z,100.00
2023-04-15T10:33:21.707Z,100.00
2023-04-15T10:36:23.400Z,100.00
2023-04-15T10:39:43.384Z,100.00
2023-04-15T10:42:45.162Z,100.00
2023-04-15T10:45:48.860Z,100.00
2023-04-15T10:48:51.474Z,100.00
2023-04-15T10:51:57.208Z,100.00
2023-04-15T10:55:04.936Z,100.00
2023-04-15T10:58:07.697Z,100.00
2023-04-15T11:01:09.588Z,100.00
2023-04-15T11:04:11.364Z,100.00
2023-04-15T11:07:13.153Z,100.00
2023-04-15T11:10:33.249Z,100.00
2023-04-15T11:13:36.380Z,100.00
2023-04-15T11:16:42.987Z,100.00
2023-04-15T11:19:44.651Z,100.00
2023-04-15T11:22:50.314Z,100.00
2023-04-15T11:25:52.079Z,100.00
2023-04-15T11:28:55.146Z,100.00
2023-04-15T11:32:04.592Z,100.00
2023-04-15T11:35:06.551Z,100.00
2023-04-15T11:38:09.413Z,100.00
2023-04-15T11:41:11.473Z,100.00
2023-04-15T11:44:18.114Z,100.00
2023-04-15T11:47:23.224Z,100.00
2023-04-15T11:50:24.961Z,100.00
2023-04-15T11:53:36.400Z,100.00
2023-04-15T11:56:37.955Z,100.00
2023-04-15T11:59:45.772Z,100.00
2023-04-15T12:02:48.859Z,100.00
2023-04-15T12:06:05.922Z,100.00
2023-04-15T12:09:09.495Z,100.00
2023-04-15T12:12:12.585Z,100.00
2023-04-15T12:15:15.787Z,100.00
2023-04-15T12:18:17.908Z,100.00
2023-04-15T12:21:19.887Z,100.00
2023-04-15T12:24:23.051Z,100.00
2023-04-15T12:27:27.643Z,100.00
2023-04-15T12:30:32.249Z,100.00
2023-04-15T12:33:33.864Z,100.00
2023-04-15T12:36:37.690Z,100.00
2023-04-15T12:39:40.827Z,100.00
2023-04-15T12:42:42.513Z,100.00
2023-04-15T12:45:45.706Z,100.00
2023-04-15T12:48:47.578Z,100.00
2023-04-15T12:51:49.666Z,100.00
2023-04-15T12:54:51.661Z,100.00
2023-04-15T12:57:53.292Z,100.00
2023-04-15T13:00:57.916Z,100.00
2023-04-15T13:03:59.738Z,100.00
2023-04-15T13:07:01.855Z,100.00
2023-04-15T13:10:03.613Z,100.00
2023-04-15T13:13:05.542Z,100.00
2023-04-15T13:16:08.705Z,100.00
2023-04-15T13:19:10.772Z,100.00
2023-04-15T13:22:12.593Z,100.00
2023-04-15T13:25:14.198Z,100.00
2023-04-15T13:28:15.771Z,100.00
2023-04-15T13:31:18.971Z,100.00
2023-04-15T13:34:20.644Z,100.00
2023-04-15T13:37:26.123Z,100.00
2023-04-15T13:40:27.885Z,100.00
2023-04-15T13:50:12.304Z,100.00
2023-04-15T13:53:14.005Z,100.00
2023-04-15T13:56:15.741Z,100.00
2023-04-15T13:59:17.382Z,100.00
2023-04-15T14:02:21.562Z,100.00
2023-04-15T14:05:24.727Z,100.00
2023-04-15T14:08:26.259Z,100.00
2023-04-15T14:11:27.837Z,100.00
2023-04-15T14:14:29.536Z,100.00
2023-04-15T14:17:31.174Z,100.00
2023-04-15T14:20:34.065Z,100.00
2023-04-15T14:23:35.734Z,100.00
2023-04-15T14:26:37.441Z,100.00
2023-04-15T14:29:39.052Z,100.00
2023-04-15T14:32:41.197Z,100.00
2023-04-15T14:35:44.208Z,100.00
2023-04-15T14:38:47.508Z,100.00
2023-04-15T14:41:50.311Z,100.00
2023-04-15T14:44:52.056Z,100.00
2023-04-15T14:47:53.932Z,100.00
2023-04-15T14:50:56.895Z,100.00
2023-04-15T14:53:58.502Z,100.00
2023-04-15T14:57:01.752Z,100.00
2023-04-15T15:00:03.576Z,100.00
2023-04-15T15:03:12.902Z,100.00
2023-04-15T15:06:16.154Z,100.00
2023-04-15T15:09:19.792Z,100.00
2023-04-15T15:12:23.672Z,100.00
2023-04-15T15:15:29.077Z,100.00
2023-04-15T15:18:31.353Z,100.00
2023-04-15T15:21:34.633Z,100.00
2023-04-15T15:24:36.496Z,100.00
2023-04-15T15:27:38.463Z,100.00
2023-04-15T15:30:40.131Z,100.00
2023-04-15T15:33:41.756Z,100.00
2023-04-15T15:36:45.583Z,100.00
2023-04-15T15:39:47.258Z,100.00
2023-04-15T15:42:50.884Z,100.00
2023-04-15T15:45:55.564Z,100.00
2023-04-15T15:48:57.235Z,100.00
2023-04-15T15:52:00.269Z,100.00
2023-04-15T15:55:02.231Z,100.00
2023-04-15T15:58:03.839Z,100.00
2023-04-15T16:01:05.838Z,100.00
2023-04-15T16:04:07.704Z,100.00
2023-04-15T16:07:11.936Z,100.00
2023-04-15T16:10:14.192Z,100.00
2023-04-15T16:13:15.941Z,100.00
2023-04-15T16:16:17.611Z,100.00
2023-04-15T16:19:20.386Z,100.00
2023-04-15T16:22:23.832Z,100.00
2023-04-15T16:25:25.889Z,100.00
2023-04-15T16:28:27.605Z,100.00
2023-04-15T16:31:29.347Z,100.00
2023-04-15T16:34:31.015Z,100.00
2023-04-15T16:37:34.637Z,100.00
2023-04-15T16:40:36.806Z,100.00
2023-04-15T16:43:38.630Z,100.00
2023-04-15T16:46:41.037Z,100.00
2023-04-15T16:49:43.015Z,100.00
2023-04-15T16:52:46.270Z,100.00
2023-04-15T16:55:47.984Z,100.00
2023-04-15T16:58:49.650Z,100.00
2023-04-15T17:01:51.602Z,100.00
2023-04-15T17:04:53.272Z,100.00
2023-04-15T17:07:56.449Z,100.00
2023-04-15T17:10:58.216Z,100.00
2023-04-15T17:13:59.874Z,100.00
2023-04-15T17:17:02.270Z,100.00
2023-04-15T17:20:05.133Z,100.00
2023-04-15T17:23:08.855Z,100.00
2023-04-15T17:26:11.271Z,100.00
2023-04-15T17:29:13.598Z,100.00
2023-04-15T17:32:15.474Z,100.00
2023-04-15T17:35:17.148Z,100.00
2023-04-15T17:38:20.250Z,100.00
2023-04-15T17:41:21.983Z,100.00
2023-04-15T17:44:25.132Z,100.00
2023-04-15T17:47:27.634Z,100.00
2023-04-15T17:50:29.429Z,100.00
2023-04-15T18:01:53.923Z,100.00
2023-04-15T18:04:57.398Z,100.00
2023-04-15T18:07:59.432Z,100.00
2023-04-15T18:11:01.172Z,100.00
2023-04-15T18:14:03.343Z,100.00
2023-04-15T18:17:06.036Z,100.00
2023-04-15T18:20:09.365Z,100.00
2023-04-15T18:23:11.446Z,100.00
2023-04-15T18:26:13.127Z,100.00
2023-04-15T18:29:14.864Z,100.00
2023-04-15T18:32:16.664Z,100.00
2023-04-15T18:35:20.651Z,100.00
2023-04-15T18:38:22.315Z,100.00
2023-04-15T18:41:25.722Z,100.00
2023-04-15T18:44:28.453Z,100.00
2023-04-15T18:47:30.292Z,100.00
2023-04-15T18:50:33.380Z,100.00
2023-04-15T18:53:35.097Z,100.00
2023-04-15T18:56:36.659Z,100.00
2023-04-15T18:59:38.942Z,100.00
2023-04-15T19:02:40.926Z,100.00
2023-04-15T19:05:44.518Z,100.00
2023-04-15T19:08:46.253Z,100.00
2023-04-15T19:11:48.069Z,100.00
2023-04-15T19:14:49.817Z,100.00
2023-04-15T19:17:51.577Z,100.00
2023-04-15T19:20:56.001Z,100.00
2023-04-15T19:23:57.871Z,100.00
2023-04-15T19:26:59.726Z,100.00
2023-04-15T19:30:02.060Z,100.00
2023-04-15T19:33:03.899Z,100.00
2023-04-15T19:36:07.421Z,100.00
2023-04-15T19:39:09.375Z,100.00
2023-04-15T19:42:11.522Z,100.00
2023-04-15T19:45:13.308Z,100.00
2023-04-15T19:48:15.321Z,100.00
2023-04-15T19:51:18.311Z,100.00
2023-04-15T19:54:19.808Z,100.00
2023-04-15T19:57:21.712Z,100.00
2023-04-15T20:00:23.573Z,100.00
2023-04-15T20:03:25.448Z,100.00
2023-04-15T20:06:28.745Z,100.00
2023-04-15T20:09:30.412Z,100.00
2023-04-15T20:12:49.754Z,100.00
2023-04-15T20:15:53.750Z,100.00
2023-04-15T20:18:55.538Z,100.00
2023-04-15T20:21:58.653Z,100.00
2023-04-15T20:25:00.532Z,100.00
2023-04-15T20:28:02.235Z,100.00
2023-04-15T20:31:03.961Z,100.00
2023-04-15T20:34:05.571Z,100.00
2023-04-15T20:37:08.510Z,100.00
2023-04-15T20:40:10.475Z,100.00
2023-04-15T20:43:12.166Z,100.00
2023-04-15T20:46:21.157Z,100.00
2023-04-15T20:49:23.207Z,100.00
2023-04-15T20:52:26.317Z,100.00
2023-04-15T20:55:29.637Z,100.00
2023-04-15T20:58:32.274Z,100.00
2023-04-15T21:01:34.514Z,100.00
2023-04-15T21:04:38.228Z,100.00
2023-04-15T21:07:41.730Z,100.00
2023-04-15T21:10:43.599Z,100.00
2023-04-15T21:13:46.424Z,100.00
2023-04-15T21:16:48.298Z,100.00
2023-04-15T21:19:49.942Z,100.00
2023-04-15T21:22:53.068Z,100.00
2023-04-15T21:25:57.821Z,100.00
2023-04-15T21:28:59.445Z,100.00
2023-04-15T21:32:01.084Z,100.00
2023-04-15T21:35:02.830Z,100.00
2023-04-15T21:38:06.224Z,100.00
2023-04-15T21:41:09.850Z,100.00
2023-04-15T21:44:13.257Z,100.00
2023-04-15T21:47:17.093Z,100.00
2023-04-15T21:50:19.308Z,100.00
2023-04-15T21:53:22.836Z,100.00
2023-04-15T21:56:25.554Z,100.00
2023-04-15T21:59:27.253Z,100.00
2023-04-15T22:02:29.410Z,100.00
2023-04-15T22:05:31.274Z,100.00
2023-04-15T22:08:41.711Z,100.00
2023-04-15T22:11:54.575Z,100.00
2023-04-15T22:14:56.692Z,100.00
2023-04-15T22:17:59.696Z,100.00
2023-04-15T22:21:04.057Z,100.00
2023-04-15T22:24:39.427Z,100.00
2023-04-15T22:27:29.194Z,100.00
2023-04-15T22:30:32.663Z,100.00
2023-04-15T22:33:34.410Z,100.00
2023-04-15T22:36:36.188Z,100.00
2023-04-15T22:39:39.298Z,100.00
2023-04-15T22:42:41.043Z,100.00
2023-04-15T22:45:48.031Z,100.00
2023-04-15T22:48:51.683Z,100.00
2023-04-15T22:51:53.423Z,100.00
2023-04-15T22:55:00.545Z,100.00
2023-04-15T22:58:02.182Z,100.00
2023-04-15T23:01:04.571Z,100.00
2023-04-15T23:04:09.126Z,100.00
2023-04-15T23:07:25.965Z,100.00
2023-04-15T23:10:29.561Z,100.00
2023-04-15T23:13:31.451Z,100.00
2023-04-15T23:16:33.491Z,100.00
2023-04-15T23:19:37.384Z,100.00
2023-04-15T23:22:48.011Z,100.00
2023-04-15T23:25:58.106Z,100.00
2023-04-15T23:29:01.745Z,100.00
2023-04-15T23:32:03.459Z,100.00
2023-04-15T23:35:05.329Z,100.00
2023-04-15T23:38:08.592Z,100.00
2023-04-15T23:41:14.074Z,100.00
2023-04-15T23:44:15.747Z,100.00
2023-04-15T23:47:17.993Z,100.00
2023-04-15T23:50:19.864Z,100.00
2023-04-15T23:53:21.618Z,100.00
2023-04-15T23:56:27.185Z,100.00
2023-04-15T23:59:28.906Z,100.00
